Time;durP1;ratioP1;P1;durP2;ratioP2;P2;SDS_P1;SDS_P2;PMS_P1;PMS_P2;Temp;Humidity;BMP_temperature;BMP_pressure;BME280_temperature;BME280_humidity;BME280_pressure;Samples;Min_cycle;Max_cycle;Signal;HPM_P1;HPM_P2
2022/10/31 00:00:08;;;;;;;12.40;6.18;;;13.00;99.90;;;;;;5032677;28;20057;-77
2022/10/31 00:02:34;;;;;;;9.68;5.90;;;12.90;99.90;;;;;;5032283;28;20049;-77
2022/10/31 00:04:59;;;;;;;9.77;5.90;;;12.80;99.90;;;;;;5031974;28;20137;-76
2022/10/31 00:07:25;;;;;;;11.38;5.57;;;12.80;99.90;;;;;;5031175;28;20050;-76
2022/10/31 00:09:50;;;;;;;8.45;5.57;;;12.70;99.90;;;;;;5032538;28;20049;-77
2022/10/31 00:12:16;;;;;;;11.57;6.13;;;12.70;99.90;;;;;;5014259;28;20041;-76
2022/10/31 00:14:42;;;;;;;10.57;6.35;;;12.60;99.90;;;;;;4985464;28;20046;-77
2022/10/31 00:17:07;;;;;;;11.63;6.20;;;12.60;99.90;;;;;;4992857;28;20062;-77
2022/10/31 00:19:33;;;;;;;10.75;6.38;;;12.60;99.90;;;;;;4991776;28;20108;-77
2022/10/31 00:21:58;;;;;;;10.57;7.03;;;12.60;99.90;;;;;;4992712;28;20050;-77
2022/10/31 00:24:24;;;;;;;10.80;6.40;;;12.60;99.90;;;;;;4992577;28;20050;-77
2022/10/31 00:26:50;;;;;;;10.20;6.47;;;12.50;99.90;;;;;;5020365;28;20176;-77
2022/10/31 00:29:15;;;;;;;13.43;7.38;;;12.50;99.90;;;;;;5031963;28;20091;-76
2022/10/31 00:31:41;;;;;;;14.27;6.93;;;12.50;99.90;;;;;;5014527;28;20049;-78
2022/10/31 00:34:07;;;;;;;11.23;7.03;;;12.50;99.90;;;;;;5032082;28;20056;-78
2022/10/31 00:36:32;;;;;;;11.48;6.75;;;12.50;99.90;;;;;;5031623;28;20052;-77
2022/10/31 00:38:58;;;;;;;10.50;7.10;;;12.40;99.90;;;;;;5032038;28;20049;-78
2022/10/31 00:41:24;;;;;;;11.52;7.20;;;12.40;99.90;;;;;;5031478;28;20057;-77
2022/10/31 00:43:50;;;;;;;13.40;7.43;;;12.40;99.90;;;;;;5014033;28;20045;-77
2022/10/31 00:46:16;;;;;;;15.38;8.38;;;12.40;99.90;;;;;;5031255;28;20053;-77
2022/10/31 00:48:42;;;;;;;12.02;7.88;;;12.40;99.90;;;;;;5031607;28;20449;-77
2022/10/31 00:51:08;;;;;;;11.02;7.47;;;12.40;99.90;;;;;;5031702;28;20053;-77
2022/10/31 00:53:34;;;;;;;11.18;7.25;;;12.40;99.90;;;;;;5014281;28;20069;-77
2022/10/31 00:55:59;;;;;;;12.10;7.78;;;12.40;99.90;;;;;;5013845;28;20045;-77
2022/10/31 00:58:25;;;;;;;12.27;7.15;;;12.40;99.90;;;;;;5014264;28;20052;-77
2022/10/31 01:00:54;;;;;;;9.88;6.72;;;12.40;99.90;;;;;;5025852;28;20046;-77
2022/10/31 01:03:22;;;;;;;10.57;6.90;;;12.30;99.90;;;;;;5011889;28;20057;-77
2022/10/31 01:06:03;;;;;;;10.95;7.30;;;12.30;99.90;;;;;;5011370;28;20074;-78
2022/10/31 01:08:29;;;;;;;13.88;7.18;;;12.30;99.90;;;;;;5011789;28;20050;-78
2022/10/31 01:11:02;;;;;;;12.82;7.25;;;12.30;99.90;;;;;;5011465;28;20053;-78
2022/10/31 01:13:29;;;;;;;11.05;7.20;;;12.30;99.90;;;;;;5011505;28;20477;-78
2022/10/31 01:15:59;;;;;;;12.23;6.70;;;12.30;99.90;;;;;;5030575;28;20049;-79
2022/10/31 01:18:25;;;;;;;12.18;6.63;;;12.30;99.90;;;;;;5031249;28;20068;-78
2022/10/31 01:21:03;;;;;;;10.23;6.80;;;12.40;99.90;;;;;;5031308;28;20128;-78
2022/10/31 01:23:30;;;;;;;12.07;6.78;;;12.40;99.90;;;;;;5031173;28;20107;-77
2022/10/31 01:26:05;;;;;;;11.77;7.13;;;12.30;99.90;;;;;;5029333;28;20045;-77
2022/10/31 01:28:30;;;;;;;12.93;6.80;;;12.30;99.90;;;;;;5010151;28;20058;-77
2022/10/31 01:31:01;;;;;;;10.98;6.25;;;12.30;99.90;;;;;;5011363;28;20430;-77
2022/10/31 01:33:26;;;;;;;9.18;6.10;;;12.30;99.90;;;;;;4994096;28;20553;-78
2022/10/31 01:35:52;;;;;;;9.90;6.30;;;12.20;99.90;;;;;;5011211;28;20049;-78
2022/10/31 01:38:18;;;;;;;11.63;6.60;;;12.10;99.90;;;;;;5011358;28;20045;-78
2022/10/31 01:40:43;;;;;;;11.80;6.68;;;12.00;99.90;;;;;;5011262;28;20061;-77
2022/10/31 01:43:14;;;;;;;9.63;7.03;;;11.90;99.90;;;;;;5011340;28;20395;-78
2022/10/31 01:45:43;;;;;;;11.52;7.03;;;11.90;99.90;;;;;;5011087;28;20133;-78
2022/10/31 01:48:15;;;;;;;12.52;7.53;;;11.90;99.90;;;;;;4993846;28;20068;-77
2022/10/31 01:50:43;;;;;;;13.75;7.25;;;11.90;99.90;;;;;;5015280;28;20065;-78
2022/10/31 01:53:11;;;;;;;11.38;6.88;;;11.90;99.90;;;;;;5015458;28;20050;-78
2022/10/31 01:55:41;;;;;;;12.43;7.60;;;12.00;99.90;;;;;;5015131;28;20046;-77
2022/10/31 01:58:27;;;;;;;12.38;7.15;;;12.00;99.90;;;;;;5015367;28;20054;-77
2022/10/31 02:00:57;;;;;;;10.57;7.25;;;11.90;99.90;;;;;;5015129;28;20102;-78
2022/10/31 02:03:25;;;;;;;10.90;7.28;;;12.00;99.90;;;;;;4997841;28;20072;-77
2022/10/31 02:05:54;;;;;;;13.00;7.13;;;12.00;99.90;;;;;;5014930;28;20115;-76
2022/10/31 02:08:28;;;;;;;12.35;6.95;;;12.00;99.90;;;;;;5014956;28;20115;-77
2022/10/31 02:10:56;;;;;;;10.40;6.95;;;11.90;99.90;;;;;;5014891;28;20088;-76
2022/10/31 02:13:23;;;;;;;11.07;7.40;;;11.90;99.90;;;;;;4997575;28;20065;-76
2022/10/31 02:15:54;;;;;;;12.13;7.07;;;11.90;99.90;;;;;;5032825;28;20505;-74
2022/10/31 02:18:20;;;;;;;9.75;7.47;;;11.90;99.90;;;;;;5034579;28;20092;-76
2022/10/31 02:21:07;;;;;;;9.75;6.88;;;11.90;99.90;;;;;;5034562;28;20049;-77
2022/10/31 02:23:50;;;;;;;9.07;6.28;;;11.90;99.90;;;;;;5034554;28;20053;-77
2022/10/31 02:26:54;;;;;;;9.35;6.38;;;11.90;99.90;;;;;;5029840;28;20076;-77
2022/10/31 02:29:37;;;;;;;12.98;6.80;;;11.80;99.90;;;;;;5014239;28;20573;-77
2022/10/31 02:32:46;;;;;;;10.23;6.38;;;11.80;99.90;;;;;;5014731;28;20143;-77
2022/10/31 02:35:14;;;;;;;9.25;6.50;;;11.80;99.90;;;;;;5014350;28;20054;-77
2022/10/31 02:37:48;;;;;;;8.35;5.88;;;11.70;99.90;;;;;;5014577;28;20053;-77
2022/10/31 02:40:24;;;;;;;7.68;5.68;;;11.70;99.90;;;;;;5014028;28;20422;-77
2022/10/31 02:43:04;;;;;;;11.13;6.40;;;11.70;99.90;;;;;;5014599;28;20491;-77
2022/10/31 02:45:40;;;;;;;9.77;6.53;;;11.80;99.90;;;;;;5013973;28;20103;-77
2022/10/31 02:48:14;;;;;;;9.35;6.25;;;11.70;99.90;;;;;;5014349;28;20050;-78
2022/10/31 02:50:43;;;;;;;8.65;6.32;;;11.70;99.90;;;;;;5014391;28;20072;-77
2022/10/31 02:53:09;;;;;;;9.13;5.95;;;11.70;99.90;;;;;;5014305;28;20046;-77
2022/10/31 02:55:35;;;;;;;8.65;6.22;;;11.70;99.90;;;;;;4996985;28;20057;-77
2022/10/31 02:58:10;;;;;;;9.07;6.05;;;11.70;99.90;;;;;;5014302;28;20057;-77
2022/10/31 03:00:49;;;;;;;9.13;6.63;;;11.70;99.90;;;;;;4996554;28;20558;-80
2022/10/31 03:03:16;;;;;;;8.38;5.60;;;11.70;99.90;;;;;;5014462;28;20061;-78
2022/10/31 03:05:51;;;;;;;7.63;4.90;;;11.70;99.90;;;;;;5014002;28;20088;-78
2022/10/31 03:08:43;;;;;;;7.00;5.20;;;11.60;99.90;;;;;;4996518;28;20048;-77
2022/10/31 03:11:10;;;;;;;7.80;5.55;;;11.60;99.90;;;;;;5010761;28;20057;-77
2022/10/31 03:13:56;;;;;;;8.15;5.57;;;11.40;99.90;;;;;;5014090;28;20049;-77
2022/10/31 03:16:29;;;;;;;7.78;6.30;;;11.50;99.90;;;;;;5015573;28;20064;-79
2022/10/31 03:19:04;;;;;;;11.18;6.93;;;11.50;99.90;;;;;;5033234;28;20057;-78
2022/10/31 03:21:33;;;;;;;8.90;6.00;;;11.50;99.90;;;;;;5033471;28;20071;-78
2022/10/31 03:24:00;;;;;;;8.07;5.80;;;11.40;99.90;;;;;;5033541;28;20076;-77
2022/10/31 03:26:26;;;;;;;10.77;6.00;;;11.40;99.90;;;;;;5027161;28;20034;-78
2022/10/31 03:29:01;;;;;;;9.60;5.47;;;11.30;99.90;;;;;;5013658;28;20050;-77
2022/10/31 03:31:33;;;;;;;7.80;5.80;;;11.20;99.90;;;;;;5013547;28;20052;-77
2022/10/31 03:34:01;;;;;;;7.90;5.43;;;11.20;99.90;;;;;;5013500;28;20049;-77
2022/10/31 03:36:30;;;;;;;7.78;5.30;;;11.20;99.90;;;;;;5013545;28;20057;-77
2022/10/31 03:38:59;;;;;;;8.55;5.38;;;11.20;99.90;;;;;;5013352;28;20096;-77
2022/10/31 03:41:31;;;;;;;7.53;5.32;;;11.10;99.90;;;;;;5012935;28;20065;-77
2022/10/31 03:44:06;;;;;;;8.95;5.75;;;11.10;99.90;;;;;;5013436;28;20050;-77
2022/10/31 03:46:32;;;;;;;7.57;5.85;;;11.10;99.90;;;;;;4995383;28;20406;-77
2022/10/31 03:48:58;;;;;;;10.63;6.43;;;11.10;99.90;;;;;;5013303;28;20046;-77
2022/10/31 03:51:39;;;;;;;9.55;6.30;;;11.20;99.90;;;;;;4995913;28;20072;-77
2022/10/31 03:54:12;;;;;;;9.07;5.97;;;11.20;99.90;;;;;;4995964;28;20434;-77
2022/10/31 03:56:50;;;;;;;6.88;5.47;;;11.20;99.90;;;;;;5012783;28;20506;-78
2022/10/31 03:59:36;;;;;;;8.50;5.60;;;11.20;99.90;;;;;;5012946;28;20060;-77
2022/10/31 04:02:15;;;;;;;8.05;5.53;;;11.20;99.90;;;;;;5013132;28;20100;-78
2022/10/31 04:04:43;;;;;;;5.90;4.22;;;11.20;99.90;;;;;;5012848;28;20053;-78
2022/10/31 04:07:11;;;;;;;5.93;3.95;;;11.20;99.90;;;;;;5013143;28;20061;-78
2022/10/31 04:09:41;;;;;;;6.55;5.25;;;11.20;99.90;;;;;;5012578;28;20050;-78
2022/10/31 04:12:11;;;;;;;8.02;5.45;;;11.10;99.90;;;;;;5012087;28;20056;-78
2022/10/31 04:14:40;;;;;;;7.72;5.43;;;11.10;99.90;;;;;;5003719;28;20057;-78
2022/10/31 04:17:10;;;;;;;9.05;5.93;;;11.10;99.90;;;;;;5014099;28;20131;-78
2022/10/31 04:19:36;;;;;;;8.13;5.53;;;11.10;99.90;;;;;;5014577;28;20067;-78
2022/10/31 04:22:02;;;;;;;6.78;5.20;;;11.10;99.90;;;;;;5032194;28;20041;-78
2022/10/31 04:24:27;;;;;;;7.88;5.50;;;11.10;99.90;;;;;;5032393;28;20104;-78
2022/10/31 04:26:53;;;;;;;7.13;5.57;;;11.00;99.90;;;;;;5023004;28;20468;-78
2022/10/31 04:29:19;;;;;;;7.95;5.30;;;11.00;99.90;;;;;;5012440;28;20442;-78
2022/10/31 04:31:44;;;;;;;6.93;3.95;;;11.00;99.90;;;;;;5012174;28;20102;-77
2022/10/31 04:34:10;;;;;;;9.85;5.18;;;10.90;99.90;;;;;;4994679;28;20414;-78
2022/10/31 04:36:36;;;;;;;27.00;5.85;;;10.90;99.90;;;;;;5012217;28;20054;-78
2022/10/31 04:39:01;;;;;;;5.70;4.28;;;10.80;99.90;;;;;;5012373;28;20494;-78
2022/10/31 04:41:27;;;;;;;6.35;4.05;;;10.90;99.90;;;;;;5012060;28;20403;-78
2022/10/31 04:43:53;;;;;;;4.75;3.72;;;10.80;99.90;;;;;;4994408;28;20116;-78
2022/10/31 04:46:18;;;;;;;5.30;3.60;;;10.80;99.90;;;;;;5011349;28;20053;-77
2022/10/31 04:48:44;;;;;;;3.45;2.83;;;10.70;99.90;;;;;;4978294;28;20046;-78
2022/10/31 04:51:09;;;;;;;5.80;3.42;;;10.60;99.90;;;;;;5012065;28;20198;-78
2022/10/31 04:53:35;;;;;;;5.45;3.47;;;10.50;99.90;;;;;;4994642;28;20140;-78
2022/10/31 04:56:01;;;;;;;3.97;3.08;;;10.30;99.90;;;;;;5012079;28;20049;-77
2022/10/31 04:58:27;;;;;;;4.47;3.58;;;10.30;99.90;;;;;;5012748;28;20053;-78
2022/10/31 05:00:54;;;;;;;4.13;3.42;;;10.20;99.90;;;;;;4996166;28;20112;-78
2022/10/31 05:03:20;;;;;;;4.75;3.40;;;10.20;99.90;;;;;;5013897;28;20077;-77
2022/10/31 05:05:46;;;;;;;4.80;3.58;;;10.20;99.90;;;;;;4978179;28;20084;-78
2022/10/31 05:08:11;;;;;;;3.47;2.83;;;10.10;99.90;;;;;;5011581;28;20053;-78
2022/10/31 05:10:37;;;;;;;5.15;3.33;;;10.10;99.90;;;;;;4994270;28;20093;-78
2022/10/31 05:13:04;;;;;;;5.32;3.30;;;10.20;99.90;;;;;;4994082;28;20061;-78
2022/10/31 05:15:30;;;;;;;4.60;3.00;;;10.10;99.90;;;;;;4990487;28;20152;-77
2022/10/31 05:17:56;;;;;;;2.88;2.33;;;10.00;99.90;;;;;;4990993;28;20057;-78
2022/10/31 05:20:25;;;;;;;4.88;3.33;;;10.00;99.90;;;;;;4992347;28;20471;-78
2022/10/31 05:22:55;;;;;;;4.18;2.90;;;9.90;99.90;;;;;;4991403;28;20051;-78
2022/10/31 05:25:23;;;;;;;5.13;3.10;;;9.90;99.90;;;;;;4991896;28;20042;-79
2022/10/31 05:27:51;;;;;;;4.25;3.40;;;9.90;99.90;;;;;;5026209;28;20048;-78
2022/10/31 05:30:20;;;;;;;6.22;3.53;;;9.90;99.90;;;;;;5031203;28;20128;-78
2022/10/31 05:32:47;;;;;;;4.13;2.80;;;9.80;99.90;;;;;;5013699;28;20433;-77
2022/10/31 05:35:17;;;;;;;4.75;2.83;;;9.70;99.90;;;;;;5013511;28;20041;-78
2022/10/31 05:37:42;;;;;;;4.57;2.17;;;9.60;99.90;;;;;;5030920;28;20080;-78
2022/10/31 05:40:11;;;;;;;3.42;2.30;;;9.60;99.90;;;;;;5030984;28;20580;-77
2022/10/31 05:42:38;;;;;;;2.88;2.00;;;9.50;99.90;;;;;;5031047;28;20049;-77
2022/10/31 05:45:05;;;;;;;2.80;2.08;;;9.40;99.90;;;;;;5030813;28;20485;-78
2022/10/31 05:47:30;;;;;;;2.88;2.40;;;9.40;99.90;;;;;;5030549;28;20057;-78
2022/10/31 05:49:56;;;;;;;3.42;2.95;;;9.40;99.90;;;;;;5031176;28;20045;-78
2022/10/31 05:52:22;;;;;;;4.55;3.00;;;9.40;99.90;;;;;;5031321;28;20055;-78
2022/10/31 05:54:47;;;;;;;6.03;2.80;;;9.50;99.90;;;;;;5020871;28;20069;-78
2022/10/31 05:57:13;;;;;;;5.35;2.47;;;9.40;99.90;;;;;;5011222;28;20054;-78
2022/10/31 05:59:39;;;;;;;5.25;2.85;;;9.50;99.90;;;;;;5011246;28;20054;-78
2022/10/31 06:02:04;;;;;;;3.65;2.60;;;9.40;99.90;;;;;;5011270;28;20517;-79
2022/10/31 06:04:30;;;;;;;3.58;2.83;;;9.50;99.90;;;;;;5011185;28;20453;-78
2022/10/31 06:06:57;;;;;;;3.67;2.53;;;9.50;99.90;;;;;;5011224;28;20054;-78
2022/10/31 06:09:22;;;;;;;3.22;2.40;;;9.50;99.90;;;;;;5011545;28;20050;-79
2022/10/31 06:11:48;;;;;;;2.42;2.10;;;9.50;99.90;;;;;;5011212;28;20590;-78
2022/10/31 06:14:14;;;;;;;4.20;2.03;;;9.60;99.90;;;;;;5016709;28;20118;-78
2022/10/31 06:16:39;;;;;;;3.42;2.13;;;9.40;99.90;;;;;;5030426;28;20046;-79
2022/10/31 06:19:05;;;;;;;3.45;2.40;;;9.30;99.90;;;;;;5030791;28;20132;-79
2022/10/31 06:21:31;;;;;;;3.40;2.50;;;9.30;99.90;;;;;;5013326;28;20041;-79
2022/10/31 06:23:57;;;;;;;3.05;2.42;;;9.30;99.90;;;;;;5029237;28;20054;-79
2022/10/31 06:26:22;;;;;;;4.45;2.83;;;9.20;99.90;;;;;;5024669;28;20451;-79
2022/10/31 06:28:48;;;;;;;3.30;2.70;;;9.20;99.90;;;;;;4992895;28;20057;-79
2022/10/31 06:31:14;;;;;;;3.65;2.97;;;9.20;99.90;;;;;;5010831;28;20064;-79
2022/10/31 06:33:42;;;;;;;4.22;3.20;;;9.20;99.90;;;;;;5009338;28;20133;-79
2022/10/31 06:36:08;;;;;;;4.13;2.85;;;9.30;99.90;;;;;;5013446;28;20061;-78
2022/10/31 06:38:34;;;;;;;3.40;2.63;;;9.30;99.90;;;;;;5014581;28;20050;-79
2022/10/31 06:41:07;;;;;;;5.80;3.90;;;9.30;99.90;;;;;;5013910;28;20065;-78
2022/10/31 06:43:33;;;;;;;3.45;2.92;;;9.30;99.90;;;;;;5014419;28;20050;-78
2022/10/31 06:46:03;;;;;;;4.38;3.13;;;9.40;99.90;;;;;;5013804;28;20092;-78
2022/10/31 06:48:28;;;;;;;3.58;2.90;;;9.40;99.90;;;;;;5014553;28;20053;-78
2022/10/31 06:51:01;;;;;;;4.38;2.67;;;9.30;99.90;;;;;;5014159;28;20415;-79
2022/10/31 06:53:29;;;;;;;3.05;2.53;;;9.30;99.90;;;;;;4996765;28;20050;-79
2022/10/31 06:55:56;;;;;;;4.05;3.13;;;9.20;99.90;;;;;;4996490;28;20413;-78
2022/10/31 06:58:21;;;;;;;5.28;2.95;;;9.20;99.90;;;;;;5014041;28;20193;-79
2022/10/31 07:00:47;;;;;;;4.10;3.30;;;9.20;99.90;;;;;;5014253;28;20136;-78
2022/10/31 07:03:15;;;;;;;4.15;3.10;;;9.30;99.90;;;;;;5014214;28;20395;-78
2022/10/31 07:05:41;;;;;;;3.35;2.50;;;9.20;99.90;;;;;;5013815;28;20053;-78
2022/10/31 07:08:09;;;;;;;3.33;2.60;;;9.30;99.90;;;;;;5014011;28;20046;-78
2022/10/31 07:10:36;;;;;;;4.57;3.30;;;9.20;99.90;;;;;;5013789;28;20072;-78
2022/10/31 07:13:04;;;;;;;4.65;3.50;;;9.30;99.90;;;;;;5012747;28;20111;-78
2022/10/31 07:15:36;;;;;;;4.68;3.40;;;9.40;99.90;;;;;;5013294;28;20057;-67
2022/10/31 07:18:03;;;;;;;4.78;3.58;;;9.40;99.90;;;;;;4996050;28;20057;-67
2022/10/31 07:20:29;;;;;;;6.35;3.97;;;9.40;99.90;;;;;;4996213;28;20054;-66
2022/10/31 07:22:55;;;;;;;5.53;4.30;;;9.40;99.90;;;;;;5013772;28;20096;-67
2022/10/31 07:25:22;;;;;;;6.82;4.20;;;9.50;99.90;;;;;;5013454;28;20069;-67
2022/10/31 07:27:47;;;;;;;7.38;4.70;;;9.60;99.90;;;;;;5013390;28;20050;-67
2022/10/31 07:30:13;;;;;;;4.80;3.78;;;9.60;99.90;;;;;;5013828;28;20049;-67
2022/10/31 07:32:43;;;;;;;5.30;4.07;;;9.60;99.90;;;;;;5013507;28;20056;-67
2022/10/31 07:35:11;;;;;;;5.85;4.57;;;9.60;99.90;;;;;;5013082;28;20133;-67
2022/10/31 07:37:37;;;;;;;6.00;4.18;;;9.60;99.90;;;;;;5013525;28;20046;-67
2022/10/31 07:40:04;;;;;;;5.10;3.75;;;9.70;99.90;;;;;;5013177;28;20060;-67
2022/10/31 07:42:50;;;;;;;4.68;3.70;;;9.70;99.90;;;;;;5013617;28;20057;-67
2022/10/31 07:45:19;;;;;;;6.68;4.00;;;9.70;99.90;;;;;;5013280;28;20454;-67
2022/10/31 07:47:49;;;;;;;7.68;4.65;;;9.60;99.90;;;;;;5011838;28;20061;-68
2022/10/31 07:50:20;;;;;;;14.10;5.43;;;9.70;99.90;;;;;;5012937;28;20045;-67
2022/10/31 07:52:46;;;;;;;9.15;5.07;;;9.70;99.90;;;;;;5012935;28;20568;-67
2022/10/31 07:55:12;;;;;;;12.60;5.15;;;9.60;99.90;;;;;;4995453;28;20046;-68
2022/10/31 07:57:38;;;;;;;19.02;6.68;;;9.60;99.90;;;;;;5012832;28;20054;-68
2022/10/31 08:00:08;;;;;;;10.38;5.07;;;9.60;99.90;;;;;;4995546;28;20103;-67
2022/10/31 08:02:35;;;;;;;8.65;6.63;;;9.60;99.90;;;;;;5013003;28;20046;-67
2022/10/31 08:05:01;;;;;;;6.63;4.97;;;9.60;99.90;;;;;;5012727;28;20053;-67
2022/10/31 08:07:28;;;;;;;6.78;5.50;;;9.70;99.90;;;;;;5012809;28;20521;-66
2022/10/31 08:09:54;;;;;;;7.80;5.13;;;9.80;99.90;;;;;;5012626;28;20529;-67
2022/10/31 08:12:20;;;;;;;6.75;5.40;;;9.90;99.90;;;;;;5012642;28;20053;-67
2022/10/31 08:14:46;;;;;;;8.02;6.47;;;9.90;99.90;;;;;;5012643;28;20837;-66
2022/10/31 08:17:11;;;;;;;9.65;7.28;;;10.00;99.90;;;;;;5012278;28;20046;-66
2022/10/31 08:19:37;;;;;;;9.65;7.32;;;10.20;99.90;;;;;;5012531;28;20056;-66
2022/10/31 08:22:03;;;;;;;11.73;8.15;;;10.30;99.90;;;;;;5012097;28;20042;-66
2022/10/31 08:24:28;;;;;;;10.50;7.03;;;10.50;99.90;;;;;;5012093;28;20378;-66
2022/10/31 08:26:54;;;;;;;11.52;7.60;;;10.60;99.90;;;;;;5012478;28;20116;-66
2022/10/31 08:29:20;;;;;;;12.00;8.75;;;10.70;99.90;;;;;;5004665;28;20542;-66
2022/10/31 08:31:45;;;;;;;11.95;8.63;;;10.90;99.90;;;;;;5008082;28;20045;-67
2022/10/31 08:34:11;;;;;;;14.27;9.35;;;11.00;99.90;;;;;;5012142;28;20053;-66
2022/10/31 08:36:37;;;;;;;15.05;9.20;;;11.20;99.90;;;;;;5011283;28;20081;-66
2022/10/31 08:39:02;;;;;;;12.85;8.88;;;11.30;99.90;;;;;;5010741;28;20119;-67
2022/10/31 08:41:28;;;;;;;12.73;9.25;;;11.50;99.90;;;;;;5009744;28;20057;-67
2022/10/31 08:43:54;;;;;;;14.57;10.35;;;11.60;99.90;;;;;;5011095;28;20054;-67
2022/10/31 08:46:20;;;;;;;15.55;10.45;;;11.70;99.90;;;;;;5011369;28;20042;-68
2022/10/31 08:48:49;;;;;;;15.82;10.70;;;11.90;99.90;;;;;;5011611;28;20042;-67
2022/10/31 08:51:14;;;;;;;16.33;10.23;;;12.20;99.90;;;;;;4993911;28;20038;-68
2022/10/31 08:53:40;;;;;;;14.55;9.38;;;12.30;99.90;;;;;;5011435;28;20046;-67
2022/10/31 08:56:06;;;;;;;13.90;9.40;;;12.60;99.90;;;;;;4994222;28;20356;-67
2022/10/31 08:58:32;;;;;;;12.88;9.85;;;12.80;99.90;;;;;;5011451;28;20045;-67
2022/10/31 09:01:00;;;;;;;13.20;8.77;;;12.90;99.90;;;;;;5010821;28;20085;-67
2022/10/31 09:03:30;;;;;;;13.57;9.60;;;13.10;99.90;;;;;;4994338;28;20475;-66
2022/10/31 09:05:59;;;;;;;11.63;9.10;;;13.30;99.90;;;;;;5011306;28;20125;-66
2022/10/31 09:08:25;;;;;;;13.50;9.23;;;13.40;99.90;;;;;;4993584;28;20050;-66
2022/10/31 09:10:51;;;;;;;12.75;8.90;;;13.40;99.90;;;;;;5011060;28;20097;-66
2022/10/31 09:13:19;;;;;;;13.50;9.10;;;13.40;99.90;;;;;;5011035;28;20044;-67
2022/10/31 09:15:47;;;;;;;14.00;8.80;;;13.30;99.90;;;;;;5028387;28;20052;-66
2022/10/31 09:18:15;;;;;;;14.75;10.02;;;13.40;99.90;;;;;;5013625;28;20429;-67
2022/10/31 09:20:42;;;;;;;13.40;9.25;;;13.40;99.90;;;;;;5029779;28;20175;-67
2022/10/31 09:23:16;;;;;;;13.63;9.35;;;13.40;99.90;;;;;;5030464;28;20531;-67
2022/10/31 09:25:43;;;;;;;11.45;8.98;;;13.50;99.90;;;;;;5014596;28;20050;-67
2022/10/31 09:28:12;;;;;;;14.40;9.50;;;13.60;99.90;;;;;;5011527;28;20050;-67
2022/10/31 09:30:37;;;;;;;14.85;9.73;;;13.60;99.90;;;;;;5011385;28;20085;-67
2022/10/31 09:33:06;;;;;;;15.40;9.27;;;13.50;99.90;;;;;;5011243;28;20461;-67
2022/10/31 09:35:32;;;;;;;15.75;8.88;;;13.50;99.90;;;;;;5011581;28;20041;-66
2022/10/31 09:38:06;;;;;;;14.13;9.43;;;13.40;99.90;;;;;;5011091;28;20037;-67
2022/10/31 09:40:40;;;;;;;12.90;8.27;;;13.40;99.90;;;;;;5011225;28;20052;-67
2022/10/31 09:43:12;;;;;;;12.77;8.77;;;13.40;99.90;;;;;;5010965;28;20053;-67
2022/10/31 09:46:23;;;;;;;11.70;8.30;;;13.40;99.90;;;;;;5011422;28;20045;-66
2022/10/31 09:49:10;;;;;;;15.85;9.32;;;13.40;99.90;;;;;;5004532;28;20054;-67
2022/10/31 09:51:41;;;;;;;14.43;8.88;;;13.40;99.90;;;;;;5009682;28;20046;-67
2022/10/31 09:54:36;;;;;;;13.48;9.35;;;13.50;99.90;;;;;;4993984;28;20069;-67
2022/10/31 09:57:03;;;;;;;12.35;9.23;;;13.50;99.90;;;;;;4980247;28;20073;-67
2022/10/31 09:59:37;;;;;;;12.77;8.63;;;13.50;99.90;;;;;;5010994;28;20054;-67
2022/10/31 10:02:03;;;;;;;14.63;8.70;;;13.70;99.90;;;;;;5011336;28;20470;-67
2022/10/31 10:04:37;;;;;;;15.30;9.38;;;13.70;99.90;;;;;;5011207;28;20045;-67
2022/10/31 10:07:14;;;;;;;12.45;8.93;;;13.90;99.90;;;;;;5011006;28;20042;-67
2022/10/31 10:09:39;;;;;;;12.88;8.77;;;14.00;99.90;;;;;;4994864;28;20089;-67
2022/10/31 10:12:22;;;;;;;12.73;8.25;;;14.00;99.90;;;;;;5014860;28;20085;-67
2022/10/31 10:15:23;;;;;;;13.52;9.07;;;14.10;99.90;;;;;;5015078;28;20367;-67
2022/10/31 10:17:54;;;;;;;12.40;8.95;;;14.20;99.90;;;;;;5014887;28;20049;-67
2022/10/31 10:20:42;;;;;;;17.27;9.48;;;14.30;99.90;;;;;;5014717;28;20049;-67
2022/10/31 10:23:26;;;;;;;15.95;9.70;;;14.30;99.90;;;;;;5014763;28;20116;-67
2022/10/31 10:26:19;;;;;;;14.18;9.27;;;14.40;99.90;;;;;;4998410;28;20390;-67
2022/10/31 10:28:51;;;;;;;15.73;9.52;;;14.50;99.90;;;;;;5031225;28;20432;-67
2022/10/31 10:31:23;;;;;;;16.30;9.05;;;14.60;99.90;;;;;;5034299;28;20124;-67
2022/10/31 10:34:14;;;;;;;12.43;8.30;;;14.70;99.90;;;;;;5034372;28;20045;-67
2022/10/31 10:37:05;;;;;;;13.65;8.35;;;14.80;99.90;;;;;;5034186;28;20088;-67
2022/10/31 10:39:40;;;;;;;15.25;9.00;;;14.80;99.90;;;;;;5030757;28;20143;-67
2022/10/31 10:47:52;;;;;;;13.75;8.10;;;14.80;99.90;;;;;;5010984;28;20108;-66
2022/10/31 10:50:25;;;;;;;10.25;7.28;;;14.70;99.90;;;;;;5013543;28;20069;-66
2022/10/31 10:53:06;;;;;;;13.63;8.10;;;14.70;99.90;;;;;;5014419;28;20240;-66
2022/10/31 10:56:03;;;;;;;12.27;7.05;;;14.60;99.90;;;;;;5014323;28;20046;-66
2022/10/31 10:58:29;;;;;;;;;;;14.60;99.90;;;;;;5014194;28;20085;-66
2022/10/31 11:00:55;;;;;;;12.00;7.57;;;14.50;99.90;;;;;;5014211;28;19976;-67
2022/10/31 11:03:21;;;;;;;10.35;7.63;;;14.50;99.90;;;;;;5013066;28;20046;-66
2022/10/31 11:05:52;;;;;;;11.68;7.07;;;14.60;99.90;;;;;;5013301;28;20357;-66
2022/10/31 11:08:25;;;;;;;11.85;7.47;;;14.60;99.90;;;;;;5013145;28;20128;-66
2022/10/31 11:11:09;;;;;;;12.00;8.10;;;14.60;99.90;;;;;;4996404;28;20060;-67
2022/10/31 11:13:36;;;;;;;12.02;7.63;;;14.70;99.90;;;;;;5013218;28;20046;-66
2022/10/31 11:16:06;;;;;;;14.30;8.40;;;14.70;99.90;;;;;;5013464;28;20100;-67
2022/10/31 11:18:36;;;;;;;13.63;8.20;;;14.70;99.90;;;;;;4995979;28;20436;-68
2022/10/31 11:21:04;;;;;;;13.20;8.85;;;14.80;99.90;;;;;;5013250;28;20203;-67
2022/10/31 11:23:31;;;;;;;11.75;8.32;;;14.80;99.90;;;;;;5013528;28;20053;-67
2022/10/31 11:25:58;;;;;;;12.82;8.65;;;14.80;99.90;;;;;;5013330;28;20116;-67
2022/10/31 11:28:25;;;;;;;14.57;9.18;;;14.70;99.90;;;;;;5013106;28;20045;-66
2022/10/31 11:30:57;;;;;;;12.82;8.75;;;14.70;99.90;;;;;;5013469;28;20080;-67
2022/10/31 11:33:43;;;;;;;13.90;8.88;;;14.70;99.90;;;;;;5012928;28;20556;-67
2022/10/31 11:36:30;;;;;;;13.35;8.98;;;14.70;99.90;;;;;;4995121;28;20057;-67
2022/10/31 11:38:58;;;;;;;14.63;9.32;;;14.70;99.90;;;;;;4995659;28;20049;-66
2022/10/31 11:41:38;;;;;;;12.98;8.77;;;14.70;99.90;;;;;;5013230;28;20065;-66
2022/10/31 11:44:20;;;;;;;15.25;9.55;;;14.70;99.90;;;;;;5012986;28;20053;-66
2022/10/31 11:47:02;;;;;;;12.85;8.63;;;14.60;99.90;;;;;;5012820;28;20378;-67
2022/10/31 11:49:38;;;;;;;13.82;9.45;;;14.70;99.90;;;;;;5012462;28;20505;-67
2022/10/31 11:52:22;;;;;;;12.65;9.10;;;14.70;99.90;;;;;;5012584;28;20116;-67
2022/10/31 11:54:53;;;;;;;12.77;9.00;;;14.70;99.90;;;;;;5012100;28;20556;-67
2022/10/31 11:57:43;;;;;;;13.43;9.52;;;14.80;99.90;;;;;;5010510;28;20394;-67
2022/10/31 12:00:36;;;;;;;14.50;9.52;;;14.80;99.90;;;;;;5009511;28;20491;-67
2022/10/31 12:03:20;;;;;;;15.55;9.07;;;14.90;99.90;;;;;;5012856;28;20050;-67
2022/10/31 12:05:51;;;;;;;12.90;8.95;;;14.90;99.90;;;;;;4975775;28;20428;-67
2022/10/31 12:08:17;;;;;;;13.85;8.88;;;15.00;99.90;;;;;;4992478;28;20387;-67
2022/10/31 12:11:20;;;;;;;12.40;7.80;;;15.00;99.90;;;;;;4989847;28;20053;-68
2022/10/31 12:14:01;;;;;;;11.85;7.50;;;15.00;99.90;;;;;;5004084;28;20127;-68
2022/10/31 12:16:37;;;;;;;11.57;7.50;;;15.00;99.90;;;;;;5011708;28;20053;-67
2022/10/31 12:19:10;;;;;;;11.55;7.18;;;15.00;99.90;;;;;;5011629;28;20147;-68
2022/10/31 12:21:48;;;;;;;11.90;6.97;;;15.00;99.90;;;;;;5012084;28;20073;-68
2022/10/31 12:24:35;;;;;;;12.98;7.47;;;15.00;99.90;;;;;;5010768;28;20506;-68
2022/10/31 12:27:03;;;;;;;;;;;15.10;99.90;;;;;;5009971;28;20120;-68
2022/10/31 12:30:21;;;;;;;12.43;6.88;;;15.00;99.90;;;;;;5011125;28;19921;-66
2022/10/31 12:33:22;;;;;;;11.23;6.93;;;15.10;99.90;;;;;;4997110;28;20130;-66
2022/10/31 12:36:15;;;;;;;10.60;6.82;;;15.10;99.90;;;;;;5010961;28;20091;-65
2022/10/31 12:39:11;;;;;;;10.07;7.03;;;15.10;99.90;;;;;;5010994;28;20049;-66
2022/10/31 12:42:01;;;;;;;10.02;6.20;;;15.20;99.90;;;;;;4992437;28;20065;-66
2022/10/31 12:44:36;;;;;;;9.35;6.30;;;15.20;99.90;;;;;;5008207;28;20357;-66
2022/10/31 12:47:35;;;;;;;9.38;5.20;;;15.20;99.90;;;;;;5010136;28;20046;-66
2022/10/31 12:50:31;;;;;;;9.75;5.13;;;15.30;99.90;;;;;;4979958;28;20100;-67
2022/10/31 12:53:04;;;;;;;8.67;5.33;;;15.40;99.90;;;;;;5009687;28;20077;-66
2022/10/31 12:55:29;;;;;;;10.75;5.78;;;15.40;99.90;;;;;;5009998;28;20149;-66
2022/10/31 12:58:28;;;;;;;9.93;5.85;;;15.50;99.90;;;;;;5010168;28;20500;-66
2022/10/31 13:01:02;;;;;;;7.82;5.28;;;15.50;99.90;;;;;;5005095;28;20054;-66
2022/10/31 13:03:54;;;;;;;10.32;5.95;;;15.60;99.90;;;;;;4990881;28;20069;-67
2022/10/31 13:06:23;;;;;;;8.63;5.05;;;15.60;99.90;;;;;;4998453;28;20045;-66
2022/10/31 13:09:01;;;;;;;7.82;4.43;;;15.70;99.90;;;;;;5003702;28;20049;-66
2022/10/31 13:11:42;;;;;;;7.15;4.20;;;15.70;99.90;;;;;;5009273;28;20050;-66